createdAt,value
2019-04-03T00:00:37.675Z,10.90
2019-04-03T00:01:37.854Z,10.87
2019-04-03T00:02:37.694Z,10.92
2019-04-03T00:03:37.659Z,10.86
2019-04-03T00:04:37.632Z,10.89
2019-04-03T00:05:37.625Z,10.97
2019-04-03T00:06:37.760Z,11.01
2019-04-03T00:07:37.614Z,10.98
2019-04-03T00:08:37.581Z,10.95
2019-04-03T00:09:37.609Z,10.95
2019-04-03T00:10:38.189Z,10.95
2019-04-03T00:11:39.499Z,10.97
2019-04-03T00:12:40.450Z,11.08
2019-04-03T00:13:37.558Z,11.02
2019-04-03T00:14:37.533Z,11.00
2019-04-03T00:15:37.540Z,11.05
2019-04-03T00:16:37.672Z,11.10
2019-04-03T00:17:37.487Z,11.02
2019-04-03T00:18:37.494Z,11.13
2019-04-03T00:19:37.482Z,11.02
2019-04-03T00:20:37.472Z,11.13
2019-04-03T00:21:37.653Z,11.07
2019-04-03T00:22:37.443Z,11.07
2019-04-03T00:23:37.432Z,11.13
2019-04-03T00:24:37.418Z,11.10
2019-04-03T00:25:37.535Z,11.04
2019-04-03T00:26:37.402Z,11.18
2019-04-03T00:27:37.423Z,11.07
2019-04-03T00:28:37.691Z,11.07
2019-04-03T00:29:37.383Z,11.10
2019-04-03T00:30:37.350Z,11.08
2019-04-03T00:31:37.347Z,11.07
2019-04-03T00:32:37.363Z,10.98
2019-04-03T00:33:37.337Z,10.92
2019-04-03T00:34:37.367Z,11.01
2019-04-03T00:35:37.323Z,10.95
2019-04-03T00:36:37.303Z,10.92
2019-04-03T00:37:37.322Z,10.95
2019-04-03T00:38:37.288Z,10.95
2019-04-03T00:39:37.425Z,10.92
2019-04-03T00:40:37.242Z,10.94
2019-04-03T00:41:37.243Z,10.90
2019-04-03T00:42:37.306Z,10.89
2019-04-03T00:43:37.244Z,10.90
2019-04-03T00:44:37.270Z,10.87
2019-04-03T00:45:37.222Z,10.90
2019-04-03T00:46:37.213Z,10.90
2019-04-03T00:47:37.186Z,10.92
2019-04-03T00:48:37.193Z,10.94
2019-04-03T00:49:37.166Z,10.90
2019-04-03T00:50:37.174Z,10.82
2019-04-03T00:51:37.175Z,10.90
2019-04-03T00:52:37.119Z,10.82
2019-04-03T00:53:37.126Z,10.83
2019-04-03T00:54:37.124Z,10.80
2019-04-03T00:55:37.230Z,10.83
2019-04-03T00:56:37.087Z,10.79
2019-04-03T00:57:37.085Z,10.79
2019-04-03T00:58:37.120Z,10.84
2019-04-03T00:59:37.062Z,10.69
2019-04-03T01:00:37.093Z,10.75
2019-04-03T01:01:37.045Z,10.71
2019-04-03T01:02:37.255Z,10.79
2019-04-03T01:03:37.030Z,10.71
2019-04-03T01:04:37.029Z,10.67
2019-04-03T01:05:37.071Z,10.67
2019-04-03T01:06:36.989Z,10.76
2019-04-03T01:07:36.982Z,10.75
2019-04-03T01:08:36.963Z,10.65
2019-04-03T01:09:36.995Z,10.79
2019-04-03T01:10:36.932Z,10.72
2019-04-03T01:11:36.939Z,10.75
2019-04-03T01:12:36.963Z,10.75
2019-04-03T01:13:36.908Z,10.75
2019-04-03T01:14:36.905Z,10.68
2019-04-03T01:15:36.879Z,10.68
2019-04-03T01:16:36.878Z,10.72
2019-04-03T01:17:36.858Z,10.62
2019-04-03T01:18:36.876Z,10.62
2019-04-03T01:19:37.069Z,10.61
2019-04-03T01:20:36.846Z,10.71
2019-04-03T01:21:37.503Z,10.67
2019-04-03T01:22:37.380Z,10.67
2019-04-03T01:23:38.015Z,10.64
2019-04-03T01:24:38.752Z,10.65
2019-04-03T01:25:39.125Z,10.62
2019-04-03T01:26:36.947Z,10.64
2019-04-03T01:27:36.748Z,10.59
2019-04-03T01:28:36.738Z,10.62
2019-04-03T01:29:36.771Z,10.67
2019-04-03T01:30:36.807Z,10.61
2019-04-03T01:31:36.718Z,10.57
2019-04-03T01:32:36.912Z,10.53
2019-04-03T01:33:36.703Z,10.58
2019-04-03T01:34:36.702Z,10.46
2019-04-03T01:35:36.709Z,10.49
2019-04-03T01:36:36.680Z,10.49
2019-04-03T01:37:36.683Z,10.49
2019-04-03T01:38:36.648Z,10.46
2019-04-03T01:39:36.663Z,10.46
2019-04-03T01:40:36.632Z,10.43
2019-04-03T01:41:36.649Z,10.42
2019-04-03T01:42:36.618Z,10.36
2019-04-03T01:43:36.753Z,10.41
2019-04-03T01:44:36.594Z,10.25
2019-04-03T01:45:36.597Z,10.33
2019-04-03T01:46:36.573Z,10.24
2019-04-03T01:47:36.560Z,10.31
2019-04-03T01:48:36.540Z,10.30
2019-04-03T01:49:36.548Z,10.30
2019-04-03T01:50:36.575Z,10.25
2019-04-03T01:51:36.538Z,10.23
2019-04-03T01:52:36.497Z,10.21
2019-04-03T01:53:36.493Z,10.21
2019-04-03T01:54:36.469Z,10.18
2019-04-03T01:55:36.474Z,10.07
2019-04-03T01:56:36.479Z,10.17
2019-04-03T01:57:37.098Z,10.00
2019-04-03T01:58:36.922Z,10.02
2019-04-03T01:59:37.565Z,9.97
2019-04-03T02:00:37.635Z,9.94
2019-04-03T02:01:36.603Z,10.00
2019-04-03T02:02:36.868Z,9.94
2019-04-03T02:03:36.377Z,9.95
2019-04-03T02:04:36.373Z,9.91
2019-04-03T02:05:36.366Z,9.85
2019-04-03T02:06:36.388Z,9.88
2019-04-03T02:07:36.366Z,9.92
2019-04-03T02:08:36.338Z,9.91
2019-04-03T02:09:36.335Z,9.80
2019-04-03T02:10:36.450Z,9.90
2019-04-03T02:11:36.298Z,9.87
2019-04-03T02:12:36.322Z,9.88
2019-04-03T02:13:36.299Z,9.88
2019-04-03T02:14:36.283Z,9.90
2019-04-03T02:15:36.253Z,9.91
2019-04-03T02:16:36.229Z,9.92
2019-04-03T02:17:36.274Z,9.88
2019-04-03T02:18:36.246Z,9.99
2019-04-03T02:19:36.210Z,9.92
2019-04-03T02:20:36.220Z,9.84
2019-04-03T02:21:36.188Z,9.92
2019-04-03T02:22:36.184Z,9.85
2019-04-03T02:23:36.204Z,9.87
2019-04-03T02:24:36.186Z,9.99
2019-04-03T02:25:36.158Z,9.82
2019-04-03T02:26:36.159Z,9.87
2019-04-03T02:27:36.126Z,9.87
2019-04-03T02:28:36.256Z,9.85
2019-04-03T02:29:36.107Z,9.82
2019-04-03T02:30:36.200Z,9.90
2019-04-03T02:31:36.091Z,9.82
2019-04-03T02:32:36.099Z,9.91
2019-04-03T02:33:36.154Z,9.87
2019-04-03T02:34:36.660Z,9.90
2019-04-03T02:35:38.999Z,9.81
2019-04-03T02:36:36.082Z,9.94
2019-04-03T02:37:36.143Z,9.94
2019-04-03T02:38:36.038Z,9.91
2019-04-03T02:39:36.042Z,9.88
2019-04-03T02:40:36.078Z,9.91
2019-04-03T02:41:37.399Z,9.99
2019-04-03T02:42:36.093Z,9.88
2019-04-03T02:43:35.985Z,9.85
2019-04-03T02:44:35.967Z,9.90
2019-04-03T02:45:35.958Z,9.92
2019-04-03T02:46:35.935Z,9.91
2019-04-03T02:47:35.921Z,9.94
2019-04-03T02:48:38.262Z,9.91
2019-04-03T02:49:35.890Z,9.82
2019-04-03T02:50:35.913Z,9.88
2019-04-03T02:51:36.050Z,9.87
2019-04-03T02:52:36.160Z,9.87
2019-04-03T02:53:35.900Z,9.88
2019-04-03T02:54:36.252Z,9.84
2019-04-03T02:55:39.016Z,9.84
2019-04-03T02:56:36.099Z,9.82
2019-04-03T02:57:35.873Z,9.81
2019-04-03T02:58:36.048Z,9.84
2019-04-03T02:59:35.801Z,9.87
2019-04-03T03:00:35.819Z,9.82
2019-04-03T03:01:38.367Z,9.80
2019-04-03T03:02:35.769Z,9.87
2019-04-03T03:03:35.896Z,9.88
2019-04-03T03:04:36.045Z,9.84
2019-04-03T03:05:35.742Z,9.94
2019-04-03T03:06:35.781Z,9.88
2019-04-03T03:07:36.451Z,9.92
2019-04-03T03:08:35.775Z,9.85
2019-04-03T03:09:35.690Z,9.94
2019-04-03T03:10:35.666Z,9.84
2019-04-03T03:11:35.697Z,9.85
2019-04-03T03:12:35.656Z,9.99
2019-04-03T03:13:36.196Z,10.00
2019-04-03T03:14:38.220Z,9.90
2019-04-03T03:15:35.692Z,9.92
2019-04-03T03:16:35.926Z,9.85
2019-04-03T03:17:35.601Z,9.91
2019-04-03T03:18:35.587Z,9.88
2019-04-03T03:19:35.759Z,9.90
2019-04-03T03:20:39.184Z,9.87
2019-04-03T03:21:35.569Z,9.91
2019-04-03T03:22:35.689Z,9.87
2019-04-03T03:23:35.810Z,9.92
2019-04-03T03:24:35.527Z,9.85
2019-04-03T03:25:35.715Z,9.90
2019-04-03T03:26:37.478Z,9.81
2019-04-03T03:27:35.717Z,9.92
2019-04-03T03:28:35.505Z,9.85
2019-04-03T03:29:35.479Z,9.88
2019-04-03T03:30:44.282Z,9.91
2019-04-03T03:32:03.128Z,9.91
2019-04-03T03:32:37.498Z,9.95
2019-04-03T03:33:38.910Z,9.95
2019-04-03T03:34:50.391Z,9.90
2019-04-03T03:35:41.436Z,9.91
2019-04-03T03:36:36.974Z,9.92
2019-04-03T03:37:35.973Z,9.92
2019-04-03T03:38:38.297Z,9.90
2019-04-03T03:39:35.372Z,9.88
2019-04-03T03:40:35.355Z,9.91
2019-04-03T03:41:35.387Z,9.90
2019-04-03T03:42:35.323Z,9.92
2019-04-03T03:43:38.263Z,9.90
2019-04-03T03:44:35.307Z,9.95
2019-04-03T03:45:35.297Z,9.90
2019-04-03T03:46:35.325Z,9.94
2019-04-03T03:47:36.383Z,9.82
2019-04-03T03:48:35.289Z,9.88
2019-04-03T03:49:35.633Z,9.92
2019-04-03T03:50:35.246Z,9.90
2019-04-03T03:51:35.275Z,9.92
2019-04-03T03:52:36.705Z,9.91
2019-04-03T03:53:35.527Z,9.80
2019-04-03T03:54:35.231Z,9.90
2019-04-03T03:55:35.535Z,9.88
2019-04-03T03:56:35.191Z,9.85
2019-04-03T03:57:38.004Z,9.88
2019-04-03T03:58:35.166Z,9.87
2019-04-03T03:59:35.165Z,9.87
2019-04-03T04:00:35.489Z,9.88
2019-04-03T04:01:35.125Z,9.82
2019-04-03T04:02:36.766Z,9.84
2019-04-03T04:03:35.110Z,9.82
2019-04-03T04:04:35.105Z,9.82
2019-04-03T04:05:35.130Z,9.81
2019-04-03T04:06:36.328Z,9.81
2019-04-03T04:07:37.403Z,9.84
2019-04-03T04:08:35.313Z,9.81
2019-04-03T04:09:35.085Z,9.81
2019-04-03T04:10:36.490Z,9.81
2019-04-03T04:11:35.240Z,9.77
2019-04-03T04:12:39.792Z,9.77
2019-04-03T04:13:36.038Z,9.72
2019-04-03T04:14:34.997Z,9.70
2019-04-03T04:15:35.003Z,9.77
2019-04-03T04:16:37.073Z,9.72
2019-04-03T04:17:34.996Z,9.69
2019-04-03T04:18:34.954Z,9.69
2019-04-03T04:19:34.955Z,9.73
2019-04-03T04:20:38.180Z,9.73
2019-04-03T04:21:35.253Z,9.69
2019-04-03T04:22:34.980Z,9.73
2019-04-03T04:23:35.127Z,9.72
2019-04-03T04:24:34.889Z,9.73
2019-04-03T04:25:34.921Z,9.73
2019-04-03T04:26:35.044Z,9.76
2019-04-03T04:27:37.786Z,9.74
2019-04-03T04:28:34.847Z,9.73
2019-04-03T04:29:34.866Z,9.72
2019-04-03T04:30:34.819Z,9.70
2019-04-03T04:31:35.044Z,9.70
2019-04-03T04:32:34.815Z,9.74
2019-04-03T04:33:34.796Z,9.72
2019-04-03T04:34:34.842Z,9.69
2019-04-03T04:35:34.798Z,9.67
2019-04-03T04:36:34.800Z,9.77
2019-04-03T04:37:34.775Z,9.74
2019-04-03T04:38:44.296Z,9.69
2019-04-03T04:39:34.719Z,9.74
2019-04-03T04:40:34.996Z,9.67
2019-04-03T04:41:34.720Z,9.74
2019-04-03T04:42:35.351Z,9.81
2019-04-03T04:43:34.699Z,9.69
2019-04-03T04:44:34.852Z,9.77
2019-04-03T04:45:34.644Z,9.70
2019-04-03T04:46:34.867Z,9.72
2019-04-03T04:47:34.729Z,9.77
2019-04-03T04:48:35.334Z,9.69
2019-04-03T04:49:34.614Z,9.72
2019-04-03T04:50:34.599Z,9.69
2019-04-03T04:51:34.732Z,9.77
2019-04-03T04:52:34.597Z,9.76
2019-04-03T04:53:34.595Z,9.72
2019-04-03T04:54:34.561Z,9.70
2019-04-03T04:55:35.665Z,9.76
2019-04-03T04:56:35.779Z,9.66
2019-04-03T04:57:34.612Z,9.74
2019-04-03T04:58:34.551Z,9.72
2019-04-03T04:59:36.356Z,9.73
2019-04-03T05:00:34.494Z,9.76
2019-04-03T05:01:34.522Z,9.67
2019-04-03T05:02:34.827Z,9.69
2019-04-03T05:03:34.465Z,9.72
2019-04-03T05:04:34.538Z,9.76
2019-04-03T05:05:34.552Z,9.70
2019-04-03T05:06:34.458Z,9.69
2019-04-03T05:07:34.620Z,9.70
2019-04-03T05:08:34.428Z,9.73
2019-04-03T05:09:35.427Z,9.72
2019-04-03T05:10:36.429Z,9.70
2019-04-03T05:11:34.377Z,9.70
2019-04-03T05:12:34.370Z,9.73
2019-04-03T05:13:34.363Z,9.69
2019-04-03T05:14:34.435Z,9.70
2019-04-03T05:15:34.352Z,9.70
2019-04-03T05:16:34.519Z,9.69
2019-04-03T05:17:34.318Z,9.76
2019-04-03T05:18:34.314Z,9.72
2019-04-03T05:19:34.369Z,9.77
2019-04-03T05:20:34.290Z,9.69
2019-04-03T05:21:34.269Z,9.77
2019-04-03T05:22:34.343Z,9.70
2019-04-03T05:23:34.264Z,9.82
2019-04-03T05:24:34.240Z,9.80
2019-04-03T05:25:34.490Z,9.82
2019-04-03T05:26:34.218Z,9.80
2019-04-03T05:27:34.794Z,9.77
2019-04-03T05:28:34.769Z,9.81
2019-04-03T05:29:34.759Z,9.82
2019-04-03T05:30:36.652Z,9.81
2019-04-03T05:31:34.441Z,9.76
2019-04-03T05:32:34.184Z,9.87
2019-04-03T05:33:34.335Z,9.82
2019-04-03T05:34:34.207Z,9.85
2019-04-03T05:35:34.134Z,9.87
2019-04-03T05:36:34.114Z,9.84
2019-04-03T05:37:34.103Z,9.85
2019-04-03T05:38:34.090Z,9.85
2019-04-03T05:39:34.112Z,9.90
2019-04-03T05:40:34.097Z,9.91
2019-04-03T05:41:34.053Z,9.94
2019-04-03T05:42:34.221Z,9.91
2019-04-03T05:43:34.063Z,9.92
2019-04-03T05:44:34.027Z,9.85
2019-04-03T05:45:35.368Z,9.88
2019-04-03T05:46:36.526Z,9.94
2019-04-03T05:47:34.011Z,9.92
2019-04-03T05:48:33.991Z,9.92
2019-04-03T05:49:33.983Z,9.92
2019-04-03T05:50:36.178Z,10.02
2019-04-03T05:51:33.965Z,10.03
2019-04-03T05:52:35.099Z,10.06
2019-04-03T05:53:36.688Z,10.09
2019-04-03T05:54:33.931Z,10.07
2019-04-03T05:55:34.245Z,10.15
2019-04-03T05:56:33.906Z,10.10
2019-04-03T05:57:33.893Z,10.17
2019-04-03T05:58:34.180Z,10.17
2019-04-03T05:59:33.880Z,10.23
2019-04-03T06:00:33.867Z,10.33
2019-04-03T06:01:33.846Z,10.27
2019-04-03T06:02:34.150Z,10.25
2019-04-03T06:03:42.307Z,10.39
2019-04-03T06:04:34.803Z,10.38
2019-04-03T06:05:33.800Z,10.38
2019-04-03T06:06:33.798Z,10.43
2019-04-03T06:07:33.813Z,10.48
2019-04-03T06:08:34.744Z,10.49
2019-04-03T06:09:33.802Z,10.55
2019-04-03T06:10:36.560Z,10.61
2019-04-03T06:11:33.742Z,10.55
2019-04-03T06:12:36.547Z,10.57
2019-04-03T06:13:33.745Z,10.59
2019-04-03T06:14:33.718Z,10.67
2019-04-03T06:15:33.701Z,10.68
2019-04-03T06:16:33.702Z,10.62
2019-04-03T06:17:33.686Z,10.76
2019-04-03T06:18:33.685Z,10.59
2019-04-03T06:19:35.212Z,10.67
2019-04-03T06:20:33.658Z,10.72
2019-04-03T06:21:33.767Z,10.75
2019-04-03T06:22:33.633Z,10.80
2019-04-03T06:23:33.849Z,10.69
2019-04-03T06:24:33.622Z,10.90
2019-04-03T06:25:33.744Z,10.84
2019-04-03T06:26:33.584Z,10.89
2019-04-03T06:27:33.571Z,11.01
2019-04-03T06:28:33.618Z,11.07
2019-04-03T06:29:33.573Z,11.16
2019-04-03T06:30:33.533Z,11.27
2019-04-03T06:31:33.542Z,11.33
2019-04-03T06:32:33.522Z,11.41
2019-04-03T06:33:35.030Z,11.48
2019-04-03T06:34:34.329Z,11.49
2019-04-03T06:35:35.162Z,11.52
2019-04-03T06:36:33.509Z,11.56
2019-04-03T06:37:34.406Z,11.59
2019-04-03T06:38:33.473Z,11.68
2019-04-03T06:39:33.606Z,11.81
2019-04-03T06:40:35.150Z,11.91
2019-04-03T06:41:33.559Z,12.00
2019-04-03T06:42:33.498Z,12.02
2019-04-03T06:43:33.700Z,12.11
2019-04-03T06:44:33.386Z,12.15
2019-04-03T06:45:33.396Z,12.11
2019-04-03T06:46:33.367Z,12.08
2019-04-03T06:47:33.375Z,12.10
2019-04-03T06:48:34.656Z,12.18
2019-04-03T06:49:33.347Z,12.20
2019-04-03T06:50:33.337Z,12.21
2019-04-03T06:51:33.352Z,12.20
2019-04-03T06:52:33.309Z,12.18
2019-04-03T06:53:33.312Z,12.23
2019-04-03T06:54:33.300Z,12.15
2019-04-03T06:55:35.602Z,12.17
2019-04-03T06:56:33.289Z,12.17
2019-04-03T06:57:33.258Z,12.20
2019-04-03T06:58:39.367Z,12.20
2019-04-03T06:59:34.241Z,12.26
2019-04-03T07:00:33.244Z,12.18
2019-04-03T07:01:33.221Z,12.23
2019-04-03T07:02:33.211Z,12.23
2019-04-03T07:03:34.329Z,12.30
2019-04-03T07:04:33.405Z,12.35
2019-04-03T07:05:33.188Z,12.36
2019-04-03T07:06:33.258Z,12.45
2019-04-03T07:07:35.451Z,12.44
2019-04-03T07:08:35.389Z,12.57
2019-04-03T07:09:36.548Z,12.58
2019-04-03T07:10:34.548Z,12.72
2019-04-03T07:11:34.169Z,12.70
2019-04-03T07:12:33.179Z,12.75
2019-04-03T07:13:34.285Z,12.84
2019-04-03T07:14:33.279Z,12.80
2019-04-03T07:15:33.105Z,12.83
2019-04-03T07:16:33.063Z,12.86
2019-04-03T07:17:33.086Z,12.94
2019-04-03T07:18:33.066Z,13.05
2019-04-03T07:19:33.224Z,13.03
2019-04-03T07:20:33.044Z,13.13
2019-04-03T07:21:33.007Z,13.24
2019-04-03T07:22:35.854Z,13.20
2019-04-03T07:23:33.012Z,13.21
2019-04-03T07:24:32.979Z,13.26
2019-04-03T07:25:33.962Z,13.31
2019-04-03T07:26:35.124Z,13.36
2019-04-03T07:27:32.996Z,13.40
2019-04-03T07:28:33.137Z,13.33
2019-04-03T07:29:32.936Z,13.42
2019-04-03T07:30:33.897Z,13.49
2019-04-03T07:31:32.913Z,13.54
2019-04-03T07:32:33.842Z,13.55
2019-04-03T07:33:32.895Z,13.65
2019-04-03T07:34:35.860Z,13.64
2019-04-03T07:35:33.946Z,13.71
2019-04-03T07:36:32.860Z,13.71
2019-04-03T07:37:35.065Z,13.85
2019-04-03T07:38:35.654Z,13.85
2019-04-03T07:39:33.425Z,13.87
2019-04-03T07:40:32.834Z,13.91
2019-04-03T07:41:33.780Z,13.98
2019-04-03T07:42:32.799Z,14.01
2019-04-03T07:43:32.852Z,14.12
2019-04-03T07:44:32.796Z,14.20
2019-04-03T07:45:33.490Z,14.25
2019-04-03T07:46:33.222Z,14.20
2019-04-03T07:47:34.346Z,14.20
2019-04-03T07:48:33.534Z,14.34
2019-04-03T07:49:32.732Z,14.33
2019-04-03T07:50:32.724Z,14.19
2019-04-03T07:51:32.689Z,14.22
2019-04-03T07:52:32.693Z,14.18
2019-04-03T07:53:32.673Z,14.28
2019-04-03T07:54:32.672Z,14.19
2019-04-03T07:55:32.655Z,14.30
2019-04-03T07:56:32.633Z,14.38
2019-04-03T07:57:32.625Z,14.38
2019-04-03T07:58:32.704Z,14.51
2019-04-03T07:59:34.256Z,14.59
2019-04-03T08:00:32.629Z,14.70
2019-04-03T08:01:32.592Z,14.71
2019-04-03T08:02:33.967Z,14.71
2019-04-03T08:03:32.568Z,14.90
2019-04-03T08:04:32.571Z,14.92
2019-04-03T08:05:32.543Z,14.93
2019-04-03T08:06:34.475Z,14.99
2019-04-03T08:07:32.697Z,15.07
2019-04-03T08:08:32.651Z,15.15
2019-04-03T08:09:32.650Z,15.10
2019-04-03T08:10:32.504Z,15.14
2019-04-03T08:11:32.778Z,15.15
2019-04-03T08:12:34.563Z,15.11
2019-04-03T08:13:32.488Z,15.25
2019-04-03T08:14:32.513Z,15.30
2019-04-03T08:15:32.446Z,15.27
2019-04-03T08:16:32.421Z,15.27
2019-04-03T08:17:32.495Z,15.39
2019-04-03T08:18:32.401Z,15.43
2019-04-03T08:19:32.392Z,15.44
2019-04-03T08:20:32.442Z,15.45
2019-04-03T08:21:32.381Z,15.51
2019-04-03T08:22:33.352Z,15.57
2019-04-03T08:23:32.550Z,15.59
2019-04-03T08:24:32.352Z,15.54
2019-04-03T08:25:32.342Z,15.70
2019-04-03T08:26:32.378Z,15.72
2019-04-03T08:27:32.319Z,15.70
2019-04-03T08:28:32.307Z,15.81
2019-04-03T08:29:33.712Z,15.83
2019-04-03T08:30:32.292Z,15.92
2019-04-03T08:31:32.262Z,16.02
2019-04-03T08:32:32.337Z,16.05
2019-04-03T08:33:33.110Z,16.10
2019-04-03T08:34:32.259Z,16.21
2019-04-03T08:35:32.829Z,16.26
2019-04-03T08:36:32.222Z,16.26
2019-04-03T08:37:32.776Z,16.32
2019-04-03T08:38:32.242Z,16.36
2019-04-03T08:39:32.207Z,16.28
2019-04-03T08:40:32.234Z,16.29
2019-04-03T08:41:32.341Z,16.40
2019-04-03T08:42:32.982Z,16.47
2019-04-03T08:43:33.094Z,16.44
2019-04-03T08:44:32.136Z,16.57
2019-04-03T08:45:32.122Z,16.73
2019-04-03T08:46:32.128Z,16.76
2019-04-03T08:47:32.166Z,16.73
2019-04-03T08:48:32.126Z,16.82
2019-04-03T08:49:32.077Z,16.80
2019-04-03T08:50:32.261Z,16.84
2019-04-03T08:51:33.959Z,16.97
2019-04-03T08:52:32.084Z,16.89
2019-04-03T08:53:32.035Z,16.95
2019-04-03T08:54:32.036Z,17.04
2019-04-03T08:55:32.009Z,17.14
2019-04-03T08:56:31.991Z,17.17
2019-04-03T08:57:31.994Z,17.24
2019-04-03T08:58:32.022Z,17.28
2019-04-03T08:59:31.990Z,17.20
2019-04-03T09:00:32.743Z,17.38
2019-04-03T09:01:31.945Z,17.37
2019-04-03T09:02:32.077Z,17.41
2019-04-03T09:03:31.934Z,17.41
2019-04-03T09:04:31.930Z,17.49
2019-04-03T09:05:31.911Z,17.46
2019-04-03T09:06:31.894Z,17.49
2019-04-03T09:07:31.888Z,17.41
2019-04-03T09:08:31.904Z,17.38
2019-04-03T09:09:34.761Z,17.23
2019-04-03T09:10:34.778Z,17.23
2019-04-03T09:11:31.846Z,17.20
2019-04-03T09:12:31.978Z,17.37
2019-04-03T09:13:31.813Z,17.23
2019-04-03T09:14:31.850Z,17.20
2019-04-03T09:15:31.790Z,17.28
2019-04-03T09:16:32.212Z,17.22
2019-04-03T09:17:33.928Z,17.27
2019-04-03T09:18:31.926Z,17.35
2019-04-03T09:19:31.774Z,17.41
2019-04-03T09:20:34.712Z,17.37
2019-04-03T09:21:31.736Z,17.54
2019-04-03T09:22:32.057Z,17.47
2019-04-03T09:23:31.901Z,17.59
2019-04-03T09:24:31.720Z,17.60
2019-04-03T09:25:32.490Z,17.68
2019-04-03T09:26:34.891Z,17.72
2019-04-03T09:27:32.692Z,17.76
2019-04-03T09:28:31.697Z,17.82
2019-04-03T09:29:31.695Z,17.91
2019-04-03T09:30:31.677Z,17.98
2019-04-03T09:31:31.931Z,18.08
2019-04-03T09:32:31.621Z,18.08
2019-04-03T09:33:31.708Z,18.24
2019-04-03T09:34:33.918Z,18.23
2019-04-03T09:35:32.764Z,18.43
2019-04-03T09:36:32.880Z,18.43
2019-04-03T09:37:31.569Z,18.46
2019-04-03T09:38:31.879Z,18.49
2019-04-03T09:39:31.636Z,18.48
2019-04-03T09:40:31.705Z,18.55
2019-04-03T09:41:31.707Z,18.64
2019-04-03T09:42:31.543Z,18.68
2019-04-03T09:43:31.498Z,18.78
2019-04-03T09:44:31.541Z,18.70
2019-04-03T09:45:31.515Z,18.81
2019-04-03T09:46:31.929Z,18.73
2019-04-03T09:47:33.616Z,18.83
2019-04-03T09:48:31.445Z,18.78
2019-04-03T09:49:31.430Z,18.82
2019-04-03T09:50:31.433Z,18.76
2019-04-03T09:51:31.440Z,18.81
2019-04-03T09:52:39.524Z,18.74
2019-04-03T09:53:32.646Z,18.76
2019-04-03T09:54:31.799Z,18.78
2019-04-03T09:55:35.902Z,18.76
2019-04-03T09:56:32.483Z,18.83
2019-04-03T09:57:31.891Z,18.86
2019-04-03T09:58:31.341Z,18.79
2019-04-03T09:59:31.575Z,18.83
2019-04-03T10:00:31.308Z,18.83
2019-04-03T10:01:31.312Z,18.79
2019-04-03T10:02:31.302Z,18.79
2019-04-03T10:03:31.705Z,18.79
2019-04-03T10:04:31.854Z,18.63
2019-04-03T10:05:31.640Z,18.74
2019-04-03T10:06:31.955Z,18.70
2019-04-03T10:07:32.037Z,18.76
2019-04-03T10:08:31.742Z,18.85
2019-04-03T10:09:31.234Z,18.81
2019-04-03T10:10:31.495Z,18.86
2019-04-03T10:11:31.309Z,18.88
2019-04-03T10:12:32.333Z,18.89
2019-04-03T10:13:31.370Z,18.91
2019-04-03T10:14:31.186Z,18.94
2019-04-03T10:15:31.961Z,18.89
2019-04-03T10:16:31.150Z,18.86
2019-04-03T10:17:31.288Z,18.97
2019-04-03T10:18:31.478Z,18.88
2019-04-03T10:19:31.386Z,18.89
2019-04-03T10:20:31.118Z,18.79
2019-04-03T10:21:33.117Z,18.92
2019-04-03T10:22:31.094Z,18.86
2019-04-03T10:23:31.114Z,18.92
2019-04-03T10:24:31.715Z,18.94
2019-04-03T10:25:31.075Z,18.89
2019-04-03T10:26:31.843Z,18.96
2019-04-03T10:27:31.338Z,18.97
2019-04-03T10:28:31.055Z,18.98
2019-04-03T10:29:31.054Z,18.97
2019-04-03T10:30:31.047Z,18.97
2019-04-03T10:31:30.998Z,18.94
2019-04-03T10:32:31.280Z,18.88
2019-04-03T10:33:32.374Z,18.94
2019-04-03T10:34:30.968Z,18.97
2019-04-03T10:35:30.968Z,18.97
2019-04-03T10:36:30.952Z,18.85
2019-04-03T10:37:31.178Z,18.85
2019-04-03T10:38:30.934Z,18.85
2019-04-03T10:39:30.925Z,18.82
2019-04-03T10:40:30.931Z,18.91
2019-04-03T10:41:30.912Z,19.00
2019-04-03T10:42:31.784Z,19.01
2019-04-03T10:43:30.882Z,18.96
2019-04-03T10:44:30.902Z,19.00
2019-04-03T10:45:30.887Z,18.97
2019-04-03T10:46:30.864Z,18.98
2019-04-03T10:47:41.040Z,19.00
2019-04-03T10:48:32.113Z,18.81
2019-04-03T10:49:32.442Z,18.85
2019-04-03T10:50:30.835Z,18.91
2019-04-03T10:51:31.775Z,18.91
2019-04-03T10:52:30.782Z,18.94
2019-04-03T10:53:30.852Z,19.04
2019-04-03T10:54:30.752Z,18.96
2019-04-03T10:55:30.757Z,19.20
2019-04-03T10:56:31.190Z,19.22
2019-04-03T10:57:31.743Z,19.24
2019-04-03T10:58:30.713Z,19.34
2019-04-03T10:59:30.723Z,19.42
2019-04-03T11:00:30.722Z,19.30
2019-04-03T11:01:30.934Z,19.23
2019-04-03T11:02:30.819Z,19.30
2019-04-03T11:03:30.748Z,19.32
2019-04-03T11:04:30.814Z,19.29
2019-04-03T11:05:30.644Z,19.29
2019-04-03T11:06:30.616Z,19.32
2019-04-03T11:07:30.630Z,19.32
2019-04-03T11:08:30.625Z,19.38
2019-04-03T11:09:30.612Z,19.26
2019-04-03T11:10:31.000Z,19.41
2019-04-03T11:11:30.632Z,19.44
2019-04-03T11:12:31.860Z,19.49
2019-04-03T11:13:33.732Z,19.57
2019-04-03T11:14:30.562Z,19.70
2019-04-03T11:15:30.536Z,19.78
2019-04-03T11:16:30.723Z,19.77
2019-04-03T11:17:30.546Z,19.96
2019-04-03T11:18:30.515Z,20.08
2019-04-03T11:19:30.524Z,20.14
2019-04-03T11:20:30.640Z,20.21
2019-04-03T11:21:30.777Z,20.27
2019-04-03T11:22:40.431Z,20.42
2019-04-03T11:23:40.151Z,20.48
2019-04-03T11:24:31.454Z,20.55
2019-04-03T11:25:30.566Z,20.59
2019-04-03T11:26:30.425Z,20.70
2019-04-03T11:27:41.789Z,20.74
2019-04-03T11:28:31.697Z,20.77
2019-04-03T11:29:30.629Z,20.83
2019-04-03T11:30:30.640Z,20.73
2019-04-03T11:31:33.555Z,20.71
2019-04-03T11:32:31.357Z,20.64
2019-04-03T11:33:30.342Z,20.60
2019-04-03T11:34:30.330Z,20.49
2019-04-03T11:35:30.574Z,20.39
2019-04-03T11:36:31.168Z,20.21
2019-04-03T11:37:33.085Z,20.26
2019-04-03T11:38:30.294Z,20.36
2019-04-03T11:39:30.409Z,20.46
2019-04-03T11:40:30.271Z,20.59
2019-04-03T11:41:30.261Z,20.73
2019-04-03T11:42:30.546Z,20.92
2019-04-03T11:43:31.425Z,20.96
2019-04-03T11:44:30.237Z,21.07
2019-04-03T11:45:30.509Z,21.22
2019-04-03T11:46:30.192Z,21.17
2019-04-03T11:47:30.208Z,21.19
2019-04-03T11:48:30.177Z,21.22
2019-04-03T11:49:30.192Z,21.40
2019-04-03T11:50:30.181Z,21.40
2019-04-03T11:51:30.300Z,21.33
2019-04-03T11:52:30.168Z,21.47
2019-04-03T11:53:30.641Z,21.53
2019-04-03T11:54:30.120Z,21.60
2019-04-03T11:55:30.123Z,21.51
2019-04-03T11:56:30.129Z,21.45
2019-04-03T11:57:30.099Z,21.33
2019-04-03T11:58:30.070Z,21.44
2019-04-03T11:59:30.061Z,21.43
2019-04-03T12:00:30.085Z,21.48
2019-04-03T12:01:30.060Z,21.51
2019-04-03T12:02:30.347Z,21.44
2019-04-03T12:03:30.034Z,21.51
2019-04-03T12:04:30.199Z,21.63
2019-04-03T12:05:30.442Z,21.74
2019-04-03T12:06:30.014Z,21.69
2019-04-03T12:07:29.997Z,21.72
2019-04-03T12:08:30.311Z,21.83
2019-04-03T12:09:31.603Z,21.72
2019-04-03T12:10:29.950Z,21.83
2019-04-03T12:11:29.957Z,21.88
2019-04-03T12:12:29.933Z,22.00
2019-04-03T12:13:29.936Z,22.07
2019-04-03T12:14:29.940Z,22.12
2019-04-03T12:15:30.153Z,22.12
2019-04-03T12:16:30.146Z,22.12
2019-04-03T12:17:30.876Z,22.12
2019-04-03T12:18:33.068Z,21.99
2019-04-03T12:19:29.875Z,21.91
2019-04-03T12:20:29.854Z,21.96
2019-04-03T12:21:30.191Z,22.25
2019-04-03T12:22:29.863Z,22.36
2019-04-03T12:23:30.152Z,22.44
2019-04-03T12:24:29.806Z,22.67
2019-04-03T12:25:29.809Z,22.77
2019-04-03T12:26:29.773Z,22.91
2019-04-03T12:27:29.778Z,23.13
2019-04-03T12:28:29.759Z,23.64
2019-04-03T12:29:29.752Z,23.94
2019-04-03T12:30:29.742Z,24.07
2019-04-03T12:31:29.738Z,24.09
2019-04-03T12:32:37.070Z,24.01
2019-04-03T12:33:31.151Z,23.89
2019-04-03T12:34:29.694Z,23.77
2019-04-03T12:35:29.713Z,23.63
2019-04-03T12:36:29.700Z,23.34
2019-04-03T12:37:29.662Z,23.14
2019-04-03T12:38:29.780Z,23.13
2019-04-03T12:39:29.755Z,23.01
2019-04-03T12:40:30.276Z,22.77
2019-04-03T12:41:29.820Z,22.74
2019-04-03T12:42:29.922Z,22.62
2019-04-03T12:43:29.691Z,22.53
2019-04-03T12:44:29.970Z,22.61
2019-04-03T12:45:29.581Z,22.46
2019-04-03T12:46:32.814Z,22.52
2019-04-03T12:47:29.557Z,22.36
2019-04-03T12:48:29.555Z,22.43
2019-04-03T12:49:29.645Z,22.40
2019-04-03T12:50:29.525Z,22.37
2019-04-03T12:51:31.577Z,22.22
2019-04-03T12:52:29.770Z,22.16
2019-04-03T12:53:29.503Z,22.07
2019-04-03T12:54:29.492Z,22.07
2019-04-03T12:55:29.486Z,22.01
2019-04-03T12:56:30.859Z,21.92
2019-04-03T12:57:32.156Z,21.91
2019-04-03T12:58:29.437Z,21.85
2019-04-03T12:59:29.467Z,21.74
2019-04-03T13:00:29.449Z,21.81